sensor_id;sensor_type;location;lat;lon;timestamp;temperature;humidity
67054;SHT31;53960;51.826;5.850;2023-05-24T00:00:32;11.36;72.81
67054;SHT31;53960;51.826;5.850;2023-05-24T00:02:58;11.28;73.03
67054;SHT31;53960;51.826;5.850;2023-05-24T00:05:24;11.31;72.91
67054;SHT31;53960;51.826;5.850;2023-05-24T00:07:49;11.27;72.86
67054;SHT31;53960;51.826;5.850;2023-05-24T00:10:15;11.35;73.01
67054;SHT31;53960;51.826;5.850;2023-05-24T00:12:40;11.20;73.12
67054;SHT31;53960;51.826;5.850;2023-05-24T00:15:06;11.03;73.91
67054;SHT31;53960;51.826;5.850;2023-05-24T00:17:31;10.93;74.11
67054;SHT31;53960;51.826;5.850;2023-05-24T00:19:59;11.03;73.65
67054;SHT31;53960;51.826;5.850;2023-05-24T00:22:24;10.94;74.24
67054;SHT31;53960;51.826;5.850;2023-05-24T00:24:50;11.03;74.24
67054;SHT31;53960;51.826;5.850;2023-05-24T00:27:15;11.11;73.61
67054;SHT31;53960;51.826;5.850;2023-05-24T00:29:41;11.00;73.85
67054;SHT31;53960;51.826;5.850;2023-05-24T00:32:06;10.94;74.07
67054;SHT31;53960;51.826;5.850;2023-05-24T00:34:31;11.03;73.96
67054;SHT31;53960;51.826;5.850;2023-05-24T00:36:56;11.00;74.04
67054;SHT31;53960;51.826;5.850;2023-05-24T00:39:22;10.99;74.34
67054;SHT31;53960;51.826;5.850;2023-05-24T00:41:48;10.93;74.56
67054;SHT31;53960;51.826;5.850;2023-05-24T00:44:13;10.85;74.52
67054;SHT31;53960;51.826;5.850;2023-05-24T00:46:39;10.89;74.31
67054;SHT31;53960;51.826;5.850;2023-05-24T00:49:05;10.87;74.56
67054;SHT31;53960;51.826;5.850;2023-05-24T00:51:31;10.80;74.89
67054;SHT31;53960;51.826;5.850;2023-05-24T00:53:58;10.72;75.20
67054;SHT31;53960;51.826;5.850;2023-05-24T00:56:24;10.76;75.04
67054;SHT31;53960;51.826;5.850;2023-05-24T00:58:50;10.83;75.00
67054;SHT31;53960;51.826;5.850;2023-05-24T01:01:19;10.69;75.48
67054;SHT31;53960;51.826;5.850;2023-05-24T01:03:44;10.92;74.74
67054;SHT31;53960;51.826;5.850;2023-05-24T01:06:12;10.87;74.89
67054;SHT31;53960;51.826;5.850;2023-05-24T01:13:58;10.67;74.79
67054;SHT31;53960;51.826;5.850;2023-05-24T01:19:00;10.67;74.87
67054;SHT31;53960;51.826;5.850;2023-05-24T01:24:24;10.70;74.83
67054;SHT31;53960;51.826;5.850;2023-05-24T01:27:12;10.59;75.19
67054;SHT31;53960;51.826;5.850;2023-05-24T01:29:38;10.46;75.43
67054;SHT31;53960;51.826;5.850;2023-05-24T01:32:04;10.46;75.72
67054;SHT31;53960;51.826;5.850;2023-05-24T01:34:30;10.48;75.63
67054;SHT31;53960;51.826;5.850;2023-05-24T01:36:56;10.48;75.44
67054;SHT31;53960;51.826;5.850;2023-05-24T01:39:24;10.43;75.74
67054;SHT31;53960;51.826;5.850;2023-05-24T01:48:33;10.34;75.42
67054;SHT31;53960;51.826;5.850;2023-05-24T01:50:57;10.31;75.35
67054;SHT31;53960;51.826;5.850;2023-05-24T01:53:23;10.29;75.33
67054;SHT31;53960;51.826;5.850;2023-05-24T01:55:54;10.31;75.33
67054;SHT31;53960;51.826;5.850;2023-05-24T01:58:22;10.26;75.36
67054;SHT31;53960;51.826;5.850;2023-05-24T02:00:49;10.18;75.74
67054;SHT31;53960;51.826;5.850;2023-05-24T02:03:15;10.19;75.81
67054;SHT31;53960;51.826;5.850;2023-05-24T02:05:41;10.11;76.02
67054;SHT31;53960;51.826;5.850;2023-05-24T02:08:08;10.18;75.62
67054;SHT31;53960;51.826;5.850;2023-05-24T02:10:34;10.26;75.62
67054;SHT31;53960;51.826;5.850;2023-05-24T02:13:02;10.18;75.54
67054;SHT31;53960;51.826;5.850;2023-05-24T02:15:27;10.09;75.67
67054;SHT31;53960;51.826;5.850;2023-05-24T02:17:54;9.98;76.24
67054;SHT31;53960;51.826;5.850;2023-05-24T02:20:19;9.94;76.40
67054;SHT31;53960;51.826;5.850;2023-05-24T02:22:47;9.81;77.05
67054;SHT31;53960;51.826;5.850;2023-05-24T02:25:12;10.04;76.29
67054;SHT31;53960;51.826;5.850;2023-05-24T02:27:37;10.05;76.23
67054;SHT31;53960;51.826;5.850;2023-05-24T02:30:04;9.95;76.12
67054;SHT31;53960;51.826;5.850;2023-05-24T02:32:30;9.83;76.29
67054;SHT31;53960;51.826;5.850;2023-05-24T02:34:55;9.90;76.65
67054;SHT31;53960;51.826;5.850;2023-05-24T02:37:23;9.83;76.35
67054;SHT31;53960;51.826;5.850;2023-05-24T02:39:49;9.95;76.52
67054;SHT31;53960;51.826;5.850;2023-05-24T02:42:14;9.90;76.27
67054;SHT31;53960;51.826;5.850;2023-05-24T02:44:39;9.80;76.68
67054;SHT31;53960;51.826;5.850;2023-05-24T02:47:06;9.87;76.68
67054;SHT31;53960;51.826;5.850;2023-05-24T02:49:32;9.83;76.77
67054;SHT31;53960;51.826;5.850;2023-05-24T02:51:57;9.84;76.69
67054;SHT31;53960;51.826;5.850;2023-05-24T02:54:23;9.70;76.82
67054;SHT31;53960;51.826;5.850;2023-05-24T02:56:48;9.57;76.92
67054;SHT31;53960;51.826;5.850;2023-05-24T02:59:14;9.54;77.05
67054;SHT31;53960;51.826;5.850;2023-05-24T03:01:39;9.63;77.46
67054;SHT31;53960;51.826;5.850;2023-05-24T03:04:04;9.81;76.74
67054;SHT31;53960;51.826;5.850;2023-05-24T03:06:30;9.71;76.85
67054;SHT31;53960;51.826;5.850;2023-05-24T03:08:55;9.71;76.73
67054;SHT31;53960;51.826;5.850;2023-05-24T03:11:22;9.70;76.75
67054;SHT31;53960;51.826;5.850;2023-05-24T03:13:48;9.64;76.92
67054;SHT31;53960;51.826;5.850;2023-05-24T03:16:14;9.60;76.92
67054;SHT31;53960;51.826;5.850;2023-05-24T03:18:41;9.46;77.35
67054;SHT31;53960;51.826;5.850;2023-05-24T03:21:06;9.47;77.61
67054;SHT31;53960;51.826;5.850;2023-05-24T03:23:31;9.64;77.22
67054;SHT31;53960;51.826;5.850;2023-05-24T03:25:58;9.56;77.18
67054;SHT31;53960;51.826;5.850;2023-05-24T03:28:23;9.56;77.03
67054;SHT31;53960;51.826;5.850;2023-05-24T03:30:49;9.51;76.67
67054;SHT31;53960;51.826;5.850;2023-05-24T03:33:14;9.63;76.67
67054;SHT31;53960;51.826;5.850;2023-05-24T03:35:39;9.43;76.89
67054;SHT31;53960;51.826;5.850;2023-05-24T03:38:05;9.48;77.44
67054;SHT31;53960;51.826;5.850;2023-05-24T03:40:30;9.42;77.47
67054;SHT31;53960;51.826;5.850;2023-05-24T03:42:56;9.60;77.04
67054;SHT31;53960;51.826;5.850;2023-05-24T03:45:22;9.48;76.90
67054;SHT31;53960;51.826;5.850;2023-05-24T03:47:47;9.56;77.27
67054;SHT31;53960;51.826;5.850;2023-05-24T03:50:12;9.66;76.57
67054;SHT31;53960;51.826;5.850;2023-05-24T03:52:38;9.67;76.76
67054;SHT31;53960;51.826;5.850;2023-05-24T03:55:04;9.58;77.22
67054;SHT31;53960;51.826;5.850;2023-05-24T03:57:30;9.60;77.07
67054;SHT31;53960;51.826;5.850;2023-05-24T03:59:55;9.69;77.11
67054;SHT31;53960;51.826;5.850;2023-05-24T04:02:20;9.63;77.21
67054;SHT31;53960;51.826;5.850;2023-05-24T04:04:46;9.57;77.36
67054;SHT31;53960;51.826;5.850;2023-05-24T04:07:11;9.47;77.88
67054;SHT31;53960;51.826;5.850;2023-05-24T04:09:38;9.48;77.92
67054;SHT31;53960;51.826;5.850;2023-05-24T04:12:03;9.58;77.97
67054;SHT31;53960;51.826;5.850;2023-05-24T04:14:29;9.61;77.81
67054;SHT31;53960;51.826;5.850;2023-05-24T04:16:54;9.44;78.14
67054;SHT31;53960;51.826;5.850;2023-05-24T04:19:19;9.63;78.20
67054;SHT31;53960;51.826;5.850;2023-05-24T04:21:45;9.71;77.86
67054;SHT31;53960;51.826;5.850;2023-05-24T04:24:10;9.81;77.81
67054;SHT31;53960;51.826;5.850;2023-05-24T04:26:36;9.74;78.03
67054;SHT31;53960;51.826;5.850;2023-05-24T04:29:02;9.71;78.52
67054;SHT31;53960;51.826;5.850;2023-05-24T04:31:27;9.81;77.98
67054;SHT31;53960;51.826;5.850;2023-05-24T04:33:55;9.69;78.86
67054;SHT31;53960;51.826;5.850;2023-05-24T04:36:21;9.81;79.39
67054;SHT31;53960;51.826;5.850;2023-05-24T04:38:47;9.88;79.50
67054;SHT31;53960;51.826;5.850;2023-05-24T04:41:13;9.95;79.64
67054;SHT31;53960;51.826;5.850;2023-05-24T04:43:38;10.02;79.24
67054;SHT31;53960;51.826;5.850;2023-05-24T04:46:04;10.04;79.38
67054;SHT31;53960;51.826;5.850;2023-05-24T04:48:30;10.11;79.72
67054;SHT31;53960;51.826;5.850;2023-05-24T04:50:56;10.08;79.86
67054;SHT31;53960;51.826;5.850;2023-05-24T04:53:22;10.19;79.79
67054;SHT31;53960;51.826;5.850;2023-05-24T04:55:49;10.19;79.92
67054;SHT31;53960;51.826;5.850;2023-05-24T04:58:15;10.24;80.25
67054;SHT31;53960;51.826;5.850;2023-05-24T05:00:41;10.34;80.04
67054;SHT31;53960;51.826;5.850;2023-05-24T05:03:07;10.39;80.12
67054;SHT31;53960;51.826;5.850;2023-05-24T05:05:33;10.39;80.32
67054;SHT31;53960;51.826;5.850;2023-05-24T05:07:59;10.43;80.08
67054;SHT31;53960;51.826;5.850;2023-05-24T05:10:24;10.57;80.04
67054;SHT31;53960;51.826;5.850;2023-05-24T05:12:51;10.66;79.86
67054;SHT31;53960;51.826;5.850;2023-05-24T05:15:16;10.55;80.34
67054;SHT31;53960;51.826;5.850;2023-05-24T05:17:41;10.73;80.24
67054;SHT31;53960;51.826;5.850;2023-05-24T05:20:07;10.77;80.12
67054;SHT31;53960;51.826;5.850;2023-05-24T05:22:33;10.85;80.00
67054;SHT31;53960;51.826;5.850;2023-05-24T05:24:59;10.94;79.95
67054;SHT31;53960;51.826;5.850;2023-05-24T05:27:25;11.03;79.88
67054;SHT31;53960;51.826;5.850;2023-05-24T05:29:50;11.04;79.74
67054;SHT31;53960;51.826;5.850;2023-05-24T05:32:15;11.14;79.58
67054;SHT31;53960;51.826;5.850;2023-05-24T05:34:41;11.21;79.60
67054;SHT31;53960;51.826;5.850;2023-05-24T05:37:06;11.36;79.24
67054;SHT31;53960;51.826;5.850;2023-05-24T05:39:32;11.41;79.09
67054;SHT31;53960;51.826;5.850;2023-05-24T05:41:57;11.45;79.33
67054;SHT31;53960;51.826;5.850;2023-05-24T05:44:22;11.55;79.13
67054;SHT31;53960;51.826;5.850;2023-05-24T05:46:48;11.54;79.03
67054;SHT31;53960;51.826;5.850;2023-05-24T05:49:14;11.51;79.00
67054;SHT31;53960;51.826;5.850;2023-05-24T05:51:40;11.51;79.25
67054;SHT31;53960;51.826;5.850;2023-05-24T05:54:05;11.69;79.08
67054;SHT31;53960;51.826;5.850;2023-05-24T05:56:32;11.75;78.92
67054;SHT31;53960;51.826;5.850;2023-05-24T05:58:59;11.76;79.03
67054;SHT31;53960;51.826;5.850;2023-05-24T06:01:25;11.66;78.70
67054;SHT31;53960;51.826;5.850;2023-05-24T06:03:50;11.76;78.19
67054;SHT31;53960;51.826;5.850;2023-05-24T06:06:16;11.71;78.36
67054;SHT31;53960;51.826;5.850;2023-05-24T06:08:41;11.71;78.61
67054;SHT31;53960;51.826;5.850;2023-05-24T06:11:06;11.68;78.91
67054;SHT31;53960;51.826;5.850;2023-05-24T06:13:32;11.85;78.51
67054;SHT31;53960;51.826;5.850;2023-05-24T06:15:57;11.82;78.90
67054;SHT31;53960;51.826;5.850;2023-05-24T06:18:25;11.86;78.72
67054;SHT31;53960;51.826;5.850;2023-05-24T06:20:51;11.83;78.67
67054;SHT31;53960;51.826;5.850;2023-05-24T06:23:17;11.90;78.56
67054;SHT31;53960;51.826;5.850;2023-05-24T06:25:42;12.02;78.41
67054;SHT31;53960;51.826;5.850;2023-05-24T06:28:08;12.00;78.35
67054;SHT31;53960;51.826;5.850;2023-05-24T06:30:34;12.10;77.87
67054;SHT31;53960;51.826;5.850;2023-05-24T06:32:59;12.12;78.03
67054;SHT31;53960;51.826;5.850;2023-05-24T06:35:25;12.19;77.88
67054;SHT31;53960;51.826;5.850;2023-05-24T06:37:50;12.21;77.87
67054;SHT31;53960;51.826;5.850;2023-05-24T06:40:16;12.26;77.84
67054;SHT31;53960;51.826;5.850;2023-05-24T06:42:41;12.27;77.29
67054;SHT31;53960;51.826;5.850;2023-05-24T06:45:07;12.29;77.18
67054;SHT31;53960;51.826;5.850;2023-05-24T06:47:33;12.40;77.44
67054;SHT31;53960;51.826;5.850;2023-05-24T06:49:58;12.48;76.98
67054;SHT31;53960;51.826;5.850;2023-05-24T06:52:25;12.55;76.00
67054;SHT31;53960;51.826;5.850;2023-05-24T06:54:51;12.62;75.75
67054;SHT31;53960;51.826;5.850;2023-05-24T06:57:16;12.57;76.17
67054;SHT31;53960;51.826;5.850;2023-05-24T06:59:41;12.65;76.16
67054;SHT31;53960;51.826;5.850;2023-05-24T07:02:07;12.68;76.47
67054;SHT31;53960;51.826;5.850;2023-05-24T07:04:32;12.71;76.22
67054;SHT31;53960;51.826;5.850;2023-05-24T07:06:58;12.68;75.97
67054;SHT31;53960;51.826;5.850;2023-05-24T07:09:23;12.69;75.43
67054;SHT31;53960;51.826;5.850;2023-05-24T07:11:49;12.75;75.61
67054;SHT31;53960;51.826;5.850;2023-05-24T07:14:14;12.95;75.39
67054;SHT31;53960;51.826;5.850;2023-05-24T07:16:39;13.10;74.78
67054;SHT31;53960;51.826;5.850;2023-05-24T07:19:05;13.12;74.69
67054;SHT31;53960;51.826;5.850;2023-05-24T07:21:31;13.19;74.54
67054;SHT31;53960;51.826;5.850;2023-05-24T07:23:56;13.23;74.33
67054;SHT31;53960;51.826;5.850;2023-05-24T07:26:22;13.19;74.67
67054;SHT31;53960;51.826;5.850;2023-05-24T07:28:47;13.20;74.11
67054;SHT31;53960;51.826;5.850;2023-05-24T07:31:13;13.22;74.09
67054;SHT31;53960;51.826;5.850;2023-05-24T07:33:38;13.16;74.34
67054;SHT31;53960;51.826;5.850;2023-05-24T07:36:04;13.20;74.44
67054;SHT31;53960;51.826;5.850;2023-05-24T07:38:30;13.26;74.41
67054;SHT31;53960;51.826;5.850;2023-05-24T07:40:58;13.43;73.84
67054;SHT31;53960;51.826;5.850;2023-05-24T07:43:24;13.39;73.76
67054;SHT31;53960;51.826;5.850;2023-05-24T07:45:49;13.44;73.72
67054;SHT31;53960;51.826;5.850;2023-05-24T07:48:14;13.51;73.69
67054;SHT31;53960;51.826;5.850;2023-05-24T07:50:40;13.36;73.04
67054;SHT31;53960;51.826;5.850;2023-05-24T07:53:05;13.36;72.63
67054;SHT31;53960;51.826;5.850;2023-05-24T07:55:31;13.33;72.71
67054;SHT31;53960;51.826;5.850;2023-05-24T07:57:56;13.47;72.86
67054;SHT31;53960;51.826;5.850;2023-05-24T08:00:22;13.53;73.30
67054;SHT31;53960;51.826;5.850;2023-05-24T08:02:47;13.70;72.37
67054;SHT31;53960;51.826;5.850;2023-05-24T08:05:13;13.73;72.34
67054;SHT31;53960;51.826;5.850;2023-05-24T08:07:40;13.90;72.69
67054;SHT31;53960;51.826;5.850;2023-05-24T08:10:08;14.05;71.84
67054;SHT31;53960;51.826;5.850;2023-05-24T08:12:34;13.92;70.42
67054;SHT31;53960;51.826;5.850;2023-05-24T08:15:00;13.97;70.62
67054;SHT31;53960;51.826;5.850;2023-05-24T08:17:26;13.88;70.43
67054;SHT31;53960;51.826;5.850;2023-05-24T08:19:51;13.92;70.88
67054;SHT31;53960;51.826;5.850;2023-05-24T08:22:16;14.18;69.98
67054;SHT31;53960;51.826;5.850;2023-05-24T08:24:42;14.22;70.00
67054;SHT31;53960;51.826;5.850;2023-05-24T08:27:07;14.50;69.90
67054;SHT31;53960;51.826;5.850;2023-05-24T08:29:34;14.70;68.61
67054;SHT31;53960;51.826;5.850;2023-05-24T08:31:59;14.75;68.12
67054;SHT31;53960;51.826;5.850;2023-05-24T08:34:25;14.80;66.89
67054;SHT31;53960;51.826;5.850;2023-05-24T08:36:50;14.96;67.70
67054;SHT31;53960;51.826;5.850;2023-05-24T08:39:16;15.12;66.38
67054;SHT31;53960;51.826;5.850;2023-05-24T08:41:42;15.16;64.97
67054;SHT31;53960;51.826;5.850;2023-05-24T08:44:07;15.16;64.42
67054;SHT31;53960;51.826;5.850;2023-05-24T08:46:34;14.98;64.10
67054;SHT31;53960;51.826;5.850;2023-05-24T08:49:00;14.94;64.71
67054;SHT31;53960;51.826;5.850;2023-05-24T08:51:28;15.03;66.03
67054;SHT31;53960;51.826;5.850;2023-05-24T08:53:53;15.00;65.58
67054;SHT31;53960;51.826;5.850;2023-05-24T08:56:19;14.88;67.25
67054;SHT31;53960;51.826;5.850;2023-05-24T08:58:45;14.75;67.59
67054;SHT31;53960;51.826;5.850;2023-05-24T09:01:13;14.60;68.05
67054;SHT31;53960;51.826;5.850;2023-05-24T09:03:39;14.62;68.06
67054;SHT31;53960;51.826;5.850;2023-05-24T09:06:06;14.60;68.22
67054;SHT31;53960;51.826;5.850;2023-05-24T09:08:33;14.63;68.54
67054;SHT31;53960;51.826;5.850;2023-05-24T09:11:01;14.69;68.81
67054;SHT31;53960;51.826;5.850;2023-05-24T09:13:27;14.76;68.94
67054;SHT31;53960;51.826;5.850;2023-05-24T09:15:53;14.75;68.39
67054;SHT31;53960;51.826;5.850;2023-05-24T09:18:19;14.72;68.05
67054;SHT31;53960;51.826;5.850;2023-05-24T09:20:45;14.72;68.00
67054;SHT31;53960;51.826;5.850;2023-05-24T09:23:11;14.69;67.56
67054;SHT31;53960;51.826;5.850;2023-05-24T09:25:44;14.60;67.33
67054;SHT31;53960;51.826;5.850;2023-05-24T09:28:15;14.76;67.36
67054;SHT31;53960;51.826;5.850;2023-05-24T09:30:56;14.73;67.70
67054;SHT31;53960;51.826;5.850;2023-05-24T09:33:22;14.73;68.20
67054;SHT31;53960;51.826;5.850;2023-05-24T09:35:47;14.77;68.03
67054;SHT31;53960;51.826;5.850;2023-05-24T09:38:17;14.73;68.04
67054;SHT31;53960;51.826;5.850;2023-05-24T09:40:43;14.75;67.85
67054;SHT31;53960;51.826;5.850;2023-05-24T09:43:09;14.62;68.21
67054;SHT31;53960;51.826;5.850;2023-05-24T09:45:41;14.62;68.28
67054;SHT31;53960;51.826;5.850;2023-05-24T09:48:11;14.57;68.91
67054;SHT31;53960;51.826;5.850;2023-05-24T09:50:36;14.42;68.96
67054;SHT31;53960;51.826;5.850;2023-05-24T09:53:02;14.42;68.74
67054;SHT31;53960;51.826;5.850;2023-05-24T09:55:28;14.39;69.07
67054;SHT31;53960;51.826;5.850;2023-05-24T09:58:05;14.45;68.48
67054;SHT31;53960;51.826;5.850;2023-05-24T10:00:38;14.42;68.22
67054;SHT31;53960;51.826;5.850;2023-05-24T10:03:07;14.43;67.93
67054;SHT31;53960;51.826;5.850;2023-05-24T10:05:33;14.45;67.85
67054;SHT31;53960;51.826;5.850;2023-05-24T10:08:00;14.45;68.17
67054;SHT31;53960;51.826;5.850;2023-05-24T10:10:30;14.49;68.31
67054;SHT31;53960;51.826;5.850;2023-05-24T10:12:57;14.50;68.82
67054;SHT31;53960;51.826;5.850;2023-05-24T10:15:23;14.50;68.64
67054;SHT31;53960;51.826;5.850;2023-05-24T10:17:50;14.55;68.99
67054;SHT31;53960;51.826;5.850;2023-05-24T10:20:15;14.59;68.77
67054;SHT31;53960;51.826;5.850;2023-05-24T10:22:46;14.65;68.38
67054;SHT31;53960;51.826;5.850;2023-05-24T10:25:26;14.73;67.87
67054;SHT31;53960;51.826;5.850;2023-05-24T10:27:57;14.77;68.24
67054;SHT31;53960;51.826;5.850;2023-05-24T10:30:36;14.86;68.12
67054;SHT31;53960;51.826;5.850;2023-05-24T10:33:06;14.94;67.54
67054;SHT31;53960;51.826;5.850;2023-05-24T10:35:32;14.90;66.56
67054;SHT31;53960;51.826;5.850;2023-05-24T10:38:04;14.88;66.51
67054;SHT31;53960;51.826;5.850;2023-05-24T10:40:30;14.94;66.34
67054;SHT31;53960;51.826;5.850;2023-05-24T10:42:56;14.87;66.72
67054;SHT31;53960;51.826;5.850;2023-05-24T10:47:46;14.96;67.05
67054;SHT31;53960;51.826;5.850;2023-05-24T10:50:19;14.93;66.60
67054;SHT31;53960;51.826;5.850;2023-05-24T10:52:45;14.94;66.47
67054;SHT31;53960;51.826;5.850;2023-05-24T10:55:11;14.87;66.38
67054;SHT31;53960;51.826;5.850;2023-05-24T10:57:38;14.81;66.22
67054;SHT31;53960;51.826;5.850;2023-05-24T11:02:47;14.97;65.54
67054;SHT31;53960;51.826;5.850;2023-05-24T11:05:13;15.10;65.63
67054;SHT31;53960;51.826;5.850;2023-05-24T11:07:42;15.27;64.57
67054;SHT31;53960;51.826;5.850;2023-05-24T11:10:15;15.48;64.31
67054;SHT31;53960;51.826;5.850;2023-05-24T11:12:43;15.58;63.49
67054;SHT31;53960;51.826;5.850;2023-05-24T11:15:09;15.75;63.90
67054;SHT31;53960;51.826;5.850;2023-05-24T11:20:38;16.03;61.71
67054;SHT31;53960;51.826;5.850;2023-05-24T11:23:08;16.14;62.40
67054;SHT31;53960;51.826;5.850;2023-05-24T11:25:36;16.17;61.95
67054;SHT31;53960;51.826;5.850;2023-05-24T11:28:05;16.10;62.77
67054;SHT31;53960;51.826;5.850;2023-05-24T11:30:31;15.93;61.37
67054;SHT31;53960;51.826;5.850;2023-05-24T11:32:59;15.86;61.50
67054;SHT31;53960;51.826;5.850;2023-05-24T11:35:26;15.76;61.47
67054;SHT31;53960;51.826;5.850;2023-05-24T11:37:56;15.76;61.58
67054;SHT31;53960;51.826;5.850;2023-05-24T11:40:21;15.97;60.84
67054;SHT31;53960;51.826;5.850;2023-05-24T11:42:48;16.20;61.30
67054;SHT31;53960;51.826;5.850;2023-05-24T11:45:16;16.23;60.55
67054;SHT31;53960;51.826;5.850;2023-05-24T11:47:42;16.14;60.93
67054;SHT31;53960;51.826;5.850;2023-05-24T11:50:08;16.21;61.51
67054;SHT31;53960;51.826;5.850;2023-05-24T11:52:37;16.36;61.81
67054;SHT31;53960;51.826;5.850;2023-05-24T11:55:04;16.78;60.02
67054;SHT31;53960;51.826;5.850;2023-05-24T11:57:36;16.86;60.26
67054;SHT31;53960;51.826;5.850;2023-05-24T12:00:05;16.89;59.56
67054;SHT31;53960;51.826;5.850;2023-05-24T12:02:35;16.85;58.73
67054;SHT31;53960;51.826;5.850;2023-05-24T12:05:07;16.94;59.47
67054;SHT31;53960;51.826;5.850;2023-05-24T12:07:33;17.02;58.48
67054;SHT31;53960;51.826;5.850;2023-05-24T12:10:00;17.11;58.16
67054;SHT31;53960;51.826;5.850;2023-05-24T12:12:26;17.22;57.37
67054;SHT31;53960;51.826;5.850;2023-05-24T12:14:54;17.29;57.87
67054;SHT31;53960;51.826;5.850;2023-05-24T12:17:19;17.70;56.64
67054;SHT31;53960;51.826;5.850;2023-05-24T12:19:47;17.50;56.60
67054;SHT31;53960;51.826;5.850;2023-05-24T12:22:13;17.47;57.56
67054;SHT31;53960;51.826;5.850;2023-05-24T12:24:39;17.32;57.52
67054;SHT31;53960;51.826;5.850;2023-05-24T12:27:04;16.98;57.29
67054;SHT31;53960;51.826;5.850;2023-05-24T12:29:37;16.86;58.69
67054;SHT31;53960;51.826;5.850;2023-05-24T12:32:03;16.85;58.59
67054;SHT31;53960;51.826;5.850;2023-05-24T12:34:29;16.85;58.85
67054;SHT31;53960;51.826;5.850;2023-05-24T12:36:55;16.82;58.41
67054;SHT31;53960;51.826;5.850;2023-05-24T12:39:25;16.99;58.60
67054;SHT31;53960;51.826;5.850;2023-05-24T12:42:00;17.29;57.82
67054;SHT31;53960;51.826;5.850;2023-05-24T12:44:36;17.69;57.52
67054;SHT31;53960;51.826;5.850;2023-05-24T12:47:03;17.43;57.32
67054;SHT31;53960;51.826;5.850;2023-05-24T12:49:30;17.33;57.16
67054;SHT31;53960;51.826;5.850;2023-05-24T12:51:55;17.50;56.35
67054;SHT31;53960;51.826;5.850;2023-05-24T12:54:26;17.67;57.02
67054;SHT31;53960;51.826;5.850;2023-05-24T12:56:52;17.77;57.36
67054;SHT31;53960;51.826;5.850;2023-05-24T12:59:18;17.71;58.02
67054;SHT31;53960;51.826;5.850;2023-05-24T13:01:44;17.42;58.32
67054;SHT31;53960;51.826;5.850;2023-05-24T13:04:15;17.30;58.52
67054;SHT31;53960;51.826;5.850;2023-05-24T13:06:41;17.80;57.65
67054;SHT31;53960;51.826;5.850;2023-05-24T13:09:06;17.78;57.12
67054;SHT31;53960;51.826;5.850;2023-05-24T13:11:32;17.81;56.71
67054;SHT31;53960;51.826;5.850;2023-05-24T13:13:57;18.04;57.23
67054;SHT31;53960;51.826;5.850;2023-05-24T13:16:24;18.18;55.82
67054;SHT31;53960;51.826;5.850;2023-05-24T13:18:50;17.85;55.40
67054;SHT31;53960;51.826;5.850;2023-05-24T13:21:15;17.83;56.88
67054;SHT31;53960;51.826;5.850;2023-05-24T13:23:41;17.75;57.31
67054;SHT31;53960;51.826;5.850;2023-05-24T13:26:07;17.80;56.95
67054;SHT31;53960;51.826;5.850;2023-05-24T13:28:33;17.64;55.95
67054;SHT31;53960;51.826;5.850;2023-05-24T13:30:58;17.33;56.92
67054;SHT31;53960;51.826;5.850;2023-05-24T13:33:24;17.22;57.68
67054;SHT31;53960;51.826;5.850;2023-05-24T13:35:50;17.08;58.33
67054;SHT31;53960;51.826;5.850;2023-05-24T13:38:16;16.88;58.29
67054;SHT31;53960;51.826;5.850;2023-05-24T13:40:43;16.81;59.18
67054;SHT31;53960;51.826;5.850;2023-05-24T13:43:09;16.79;59.41
67054;SHT31;53960;51.826;5.850;2023-05-24T13:45:35;16.69;59.92
67054;SHT31;53960;51.826;5.850;2023-05-24T13:48:00;16.72;59.35
67054;SHT31;53960;51.826;5.850;2023-05-24T13:50:32;16.63;59.25
67054;SHT31;53960;51.826;5.850;2023-05-24T13:52:58;16.63;59.22
67054;SHT31;53960;51.826;5.850;2023-05-24T13:55:26;16.48;59.16
67054;SHT31;53960;51.826;5.850;2023-05-24T13:57:52;16.44;59.25
67054;SHT31;53960;51.826;5.850;2023-05-24T14:00:20;16.28;60.11
67054;SHT31;53960;51.826;5.850;2023-05-24T14:02:45;16.31;60.59
67054;SHT31;53960;51.826;5.850;2023-05-24T14:05:10;16.27;60.67
67054;SHT31;53960;51.826;5.850;2023-05-24T14:07:36;16.27;61.54
67054;SHT31;53960;51.826;5.850;2023-05-24T14:10:01;16.33;61.63
67054;SHT31;53960;51.826;5.850;2023-05-24T14:12:27;16.36;61.15
67054;SHT31;53960;51.826;5.850;2023-05-24T14:14:52;16.37;60.50
67054;SHT31;53960;51.826;5.850;2023-05-24T14:17:18;16.44;60.53
67054;SHT31;53960;51.826;5.850;2023-05-24T14:19:43;16.45;59.91
67054;SHT31;53960;51.826;5.850;2023-05-24T14:22:08;16.34;60.38
67054;SHT31;53960;51.826;5.850;2023-05-24T14:24:34;16.37;60.62
67054;SHT31;53960;51.826;5.850;2023-05-24T14:26:59;16.31;60.68
67054;SHT31;53960;51.826;5.850;2023-05-24T14:29:26;16.31;60.86
67054;SHT31;53960;51.826;5.850;2023-05-24T14:31:51;16.24;60.48
67054;SHT31;53960;51.826;5.850;2023-05-24T14:34:16;16.20;61.16
67054;SHT31;53960;51.826;5.850;2023-05-24T14:36:42;16.21;61.16
67054;SHT31;53960;51.826;5.850;2023-05-24T14:39:07;16.28;61.17
67054;SHT31;53960;51.826;5.850;2023-05-24T14:41:33;16.30;60.82
67054;SHT31;53960;51.826;5.850;2023-05-24T14:43:59;16.18;61.01
67054;SHT31;53960;51.826;5.850;2023-05-24T14:46:24;16.20;61.40
67054;SHT31;53960;51.826;5.850;2023-05-24T14:48:50;16.10;60.96
67054;SHT31;53960;51.826;5.850;2023-05-24T14:51:16;16.00;61.46
67054;SHT31;53960;51.826;5.850;2023-05-24T14:53:41;15.97;61.73
67054;SHT31;53960;51.826;5.850;2023-05-24T14:56:07;15.97;61.63
67054;SHT31;53960;51.826;5.850;2023-05-24T14:58:33;15.95;61.74
67054;SHT31;53960;51.826;5.850;2023-05-24T15:00:58;15.87;61.95
67054;SHT31;53960;51.826;5.850;2023-05-24T15:03:23;15.83;61.54
67054;SHT31;53960;51.826;5.850;2023-05-24T15:05:49;15.92;61.22
67054;SHT31;53960;51.826;5.850;2023-05-24T15:08:15;15.96;61.50
67054;SHT31;53960;51.826;5.850;2023-05-24T15:10:40;16.02;61.59
67054;SHT31;53960;51.826;5.850;2023-05-24T15:13:08;16.07;61.38
67054;SHT31;53960;51.826;5.850;2023-05-24T15:15:33;16.16;61.58
67054;SHT31;53960;51.826;5.850;2023-05-24T15:17:59;16.21;61.33
67054;SHT31;53960;51.826;5.850;2023-05-24T15:20:24;16.30;61.05
67054;SHT31;53960;51.826;5.850;2023-05-24T15:22:49;16.26;61.23
67054;SHT31;53960;51.826;5.850;2023-05-24T15:25:15;16.23;61.63
67054;SHT31;53960;51.826;5.850;2023-05-24T15:27:40;16.24;61.46
67054;SHT31;53960;51.826;5.850;2023-05-24T15:30:06;16.07;61.43
67054;SHT31;53960;51.826;5.850;2023-05-24T15:32:32;15.99;61.75
67054;SHT31;53960;51.826;5.850;2023-05-24T15:34:57;15.92;61.91
67054;SHT31;53960;51.826;5.850;2023-05-24T15:37:24;15.76;62.78
67054;SHT31;53960;51.826;5.850;2023-05-24T15:39:49;15.75;63.25
67054;SHT31;53960;51.826;5.850;2023-05-24T15:42:16;15.63;63.79
67054;SHT31;53960;51.826;5.850;2023-05-24T15:44:42;15.66;63.81
67054;SHT31;53960;51.826;5.850;2023-05-24T15:47:07;15.72;63.57
67054;SHT31;53960;51.826;5.850;2023-05-24T15:49:33;15.72;63.24
67054;SHT31;53960;51.826;5.850;2023-05-24T15:51:58;15.76;63.36